Aviation Digital Data Service (ADDS)

Output produced by METARs form (1244 UTC 18 August 2017)
found at http://aviationweather.gov/adds/metars/
 
METAR text: KHDN 181156Z AUTO 10008KT 10SM CLR 11/03 A3033 RMK AO2 SLP191 7//// T01060033 10178 20100 53010
Conditions at: KHDN (HAYDEN/YAMPA , CO, US) observed 1156 UTC 18 August 2017
Temperature: 10.6°C (51°F)
Dewpoint: 3.3°C (38°F) [RH = 61%]
Pressure (altimeter): 30.33 inches Hg (1027.2 mb)
[Sea-level pressure: 1019.1 mb]
Winds: from the E (100 degrees) at 9 MPH (8 knots; 4.2 m/s)
Visibility: 10 or more miles (16+ km)
Ceiling: at least 12,000 feet AGL
Clouds: sky clear below 12,000 feet AGL
Weather: automated observation with no human augmentation;
there may or may not be significant weather present at this time